createdAt,value
2023-05-03T00:00:41.483Z,4.70
2023-05-03T00:03:08.042Z,4.90
2023-05-03T00:05:34.720Z,5.00
2023-05-03T00:08:01.532Z,5.27
2023-05-03T00:10:28.155Z,5.87
2023-05-03T00:12:55.440Z,5.17
2023-05-03T00:15:22.127Z,5.63
2023-05-03T00:17:48.665Z,5.30
2023-05-03T00:20:15.475Z,5.87
2023-05-03T00:22:42.073Z,5.83
2023-05-03T00:25:09.793Z,5.30
2023-05-03T00:27:36.773Z,5.70
2023-05-03T00:30:03.675Z,5.60
2023-05-03T00:32:30.567Z,5.83
2023-05-03T00:34:57.424Z,5.40
2023-05-03T00:37:24.525Z,5.30
2023-05-03T00:39:51.148Z,5.10
2023-05-03T00:42:17.688Z,5.60
2023-05-03T00:44:44.239Z,5.07
2023-05-03T00:47:11.347Z,4.43
2023-05-03T00:49:38.196Z,5.03
2023-05-03T00:52:05.718Z,5.40
2023-05-03T00:54:35.082Z,5.00
2023-05-03T00:57:02.040Z,5.17
2023-05-03T00:59:28.954Z,5.27
2023-05-03T01:01:55.502Z,5.20
2023-05-03T01:04:22.460Z,5.27
2023-05-03T01:06:57.984Z,5.60
2023-05-03T01:09:33.147Z,5.10
2023-05-03T01:12:15.971Z,5.43
2023-05-03T01:14:48.637Z,4.87
2023-05-03T01:17:18.427Z,5.43
2023-05-03T01:19:47.775Z,5.10
2023-05-03T01:22:27.102Z,5.60
2023-05-03T01:25:01.621Z,5.70
2023-05-03T01:27:28.348Z,5.23
2023-05-03T01:29:54.868Z,5.03
2023-05-03T01:32:26.899Z,5.60
2023-05-03T01:34:59.894Z,5.40
2023-05-03T01:37:27.153Z,5.33
2023-05-03T01:40:02.529Z,4.97
2023-05-03T01:42:29.911Z,5.00
2023-05-03T01:44:56.652Z,5.00
2023-05-03T01:47:23.402Z,5.70
2023-05-03T01:49:50.042Z,5.47
2023-05-03T01:52:16.567Z,5.43
2023-05-03T01:54:44.287Z,5.10
2023-05-03T01:57:10.794Z,5.30
2023-05-03T01:59:37.514Z,6.00
2023-05-03T02:02:04.042Z,5.33
2023-05-03T02:04:30.674Z,5.90
2023-05-03T02:06:57.228Z,5.60
2023-05-03T02:09:24.112Z,5.87
2023-05-03T02:11:50.816Z,6.00
2023-05-03T02:14:17.329Z,5.70
2023-05-03T02:16:43.918Z,5.83
2023-05-03T02:19:11.150Z,6.27
2023-05-03T02:21:37.952Z,6.37
2023-05-03T02:24:04.625Z,6.10
2023-05-03T02:26:31.142Z,5.63
2023-05-03T02:28:58.189Z,5.90
2023-05-03T02:31:27.827Z,6.17
2023-05-03T02:33:56.042Z,5.73
2023-05-03T02:36:23.305Z,5.77
2023-05-03T02:38:49.940Z,6.50
2023-05-03T02:41:17.390Z,6.00
2023-05-03T02:43:44.017Z,5.97
2023-05-03T02:46:10.567Z,5.90
2023-05-03T02:48:37.262Z,5.93
2023-05-03T02:51:03.957Z,5.60
2023-05-03T02:53:30.528Z,5.67
2023-05-03T02:56:00.840Z,5.50
2023-05-03T02:58:27.614Z,5.77
2023-05-03T03:00:54.598Z,6.13
2023-05-03T03:03:21.546Z,5.90
2023-05-03T03:05:49.515Z,5.80
2023-05-03T03:08:16.301Z,5.57
2023-05-03T03:10:43.184Z,6.37
2023-05-03T03:13:11.776Z,5.50
2023-05-03T03:15:38.690Z,5.33
2023-05-03T03:18:05.926Z,6.07
2023-05-03T03:20:32.564Z,6.37
2023-05-03T03:22:59.211Z,6.17
2023-05-03T03:25:26.725Z,5.87
2023-05-03T03:27:56.065Z,5.73
2023-05-03T03:30:22.697Z,6.53
2023-05-03T03:33:05.414Z,5.87
2023-05-03T03:35:38.106Z,6.00
2023-05-03T03:38:05.923Z,5.50
2023-05-03T03:40:35.475Z,6.00
2023-05-03T03:43:02.053Z,5.60
2023-05-03T03:45:28.649Z,6.00
2023-05-03T03:47:58.046Z,5.97
2023-05-03T03:50:25.731Z,6.03
2023-05-03T03:52:52.361Z,5.43
2023-05-03T03:55:19.902Z,5.80
2023-05-03T03:57:48.744Z,6.07
2023-05-03T04:00:16.788Z,6.00
2023-05-03T04:02:49.535Z,5.60
2023-05-03T04:05:18.102Z,5.70
2023-05-03T04:07:45.896Z,5.33
2023-05-03T04:10:13.849Z,5.60
2023-05-03T04:12:41.111Z,5.73
2023-05-03T04:15:08.072Z,5.90
2023-05-03T04:17:35.679Z,5.60
2023-05-03T04:20:07.269Z,5.50
2023-05-03T04:22:34.206Z,5.77
2023-05-03T04:25:03.877Z,5.40
2023-05-03T04:27:30.536Z,5.37
2023-05-03T04:29:57.359Z,5.30
2023-05-03T04:32:24.636Z,4.83
2023-05-03T04:34:55.156Z,5.30
2023-05-03T04:37:24.093Z,5.07
2023-05-03T04:39:50.923Z,5.00
2023-05-03T04:42:18.521Z,4.80
2023-05-03T04:44:45.927Z,4.73
2023-05-03T04:47:12.891Z,5.00
2023-05-03T04:49:40.718Z,4.70
2023-05-03T04:52:07.272Z,4.80
2023-05-03T04:54:34.528Z,4.63
2023-05-03T04:57:01.261Z,4.93
2023-05-03T04:59:27.828Z,4.67
2023-05-03T05:01:54.372Z,4.33
2023-05-03T05:04:21.025Z,4.53
2023-05-03T05:06:51.253Z,4.40
2023-05-03T05:09:21.998Z,4.10
2023-05-03T05:11:50.175Z,4.07
2023-05-03T05:14:17.672Z,4.00
2023-05-03T05:16:44.427Z,4.10
2023-05-03T05:19:11.922Z,4.27
2023-05-03T05:21:38.843Z,4.23
2023-05-03T05:24:05.936Z,4.40
2023-05-03T05:26:32.699Z,4.20
2023-05-03T05:28:59.763Z,3.93
2023-05-03T05:31:26.517Z,3.60
2023-05-03T05:33:54.082Z,4.23
2023-05-03T05:36:20.723Z,4.43
2023-05-03T05:38:47.920Z,4.30
2023-05-03T05:41:14.450Z,3.80
2023-05-03T05:43:42.338Z,3.60
2023-05-03T05:46:09.268Z,4.20
2023-05-03T05:48:36.029Z,4.00
2023-05-03T05:51:02.873Z,4.20
2023-05-03T05:53:29.585Z,3.90
2023-05-03T05:56:00.092Z,3.93
2023-05-03T05:58:28.097Z,4.10
2023-05-03T06:01:04.877Z,3.77
2023-05-03T06:03:35.108Z,3.90
2023-05-03T06:06:04.392Z,4.00
2023-05-03T06:08:31.299Z,3.90
2023-05-03T06:10:57.841Z,3.83
2023-05-03T06:13:26.401Z,4.00
2023-05-03T06:15:53.826Z,3.70
2023-05-03T06:18:20.368Z,4.10
2023-05-03T06:20:50.462Z,4.33
2023-05-03T06:23:18.337Z,4.13
2023-05-03T06:25:48.012Z,3.83
2023-05-03T06:28:16.140Z,3.60
2023-05-03T06:30:42.724Z,3.70
2023-05-03T06:33:13.588Z,4.13
2023-05-03T06:35:41.190Z,3.80
2023-05-03T06:38:08.951Z,3.63
2023-05-03T06:40:38.371Z,4.10
2023-05-03T06:43:05.243Z,3.90
2023-05-03T06:45:35.786Z,3.90
2023-05-03T06:48:02.784Z,4.20
2023-05-03T06:50:29.416Z,4.33
2023-05-03T06:52:55.982Z,3.77
2023-05-03T06:55:22.498Z,3.93
2023-05-03T06:57:49.170Z,3.83
2023-05-03T07:00:15.976Z,3.93
2023-05-03T07:02:42.695Z,4.00
2023-05-03T07:05:09.738Z,4.17
2023-05-03T07:07:36.336Z,4.17
2023-05-03T07:10:03.551Z,3.30
2023-05-03T07:12:30.364Z,4.10
2023-05-03T07:14:57.264Z,4.13
2023-05-03T07:17:24.231Z,4.10
2023-05-03T07:19:51.045Z,3.80
2023-05-03T07:22:17.961Z,3.80
2023-05-03T07:24:44.573Z,3.83
2023-05-03T07:27:11.453Z,4.03
2023-05-03T07:29:38.007Z,3.87
2023-05-03T07:32:04.749Z,4.10
2023-05-03T07:34:32.685Z,4.13
2023-05-03T07:36:59.296Z,3.70
2023-05-03T07:39:25.903Z,4.10
2023-05-03T07:41:52.471Z,3.83
2023-05-03T07:44:19.019Z,3.77
2023-05-03T07:46:45.562Z,4.07
2023-05-03T07:49:12.158Z,3.90
2023-05-03T07:51:39.114Z,3.60
2023-05-03T07:54:06.321Z,3.60
2023-05-03T07:56:33.059Z,3.13
2023-05-03T07:59:09.076Z,3.70
2023-05-03T08:01:36.952Z,3.70
2023-05-03T08:04:04.734Z,3.17
2023-05-03T08:06:31.937Z,3.73
2023-05-03T08:08:58.580Z,3.97
2023-05-03T08:11:26.868Z,3.40
2023-05-03T08:13:53.425Z,4.10
2023-05-03T08:16:20.180Z,3.80
2023-05-03T08:18:47.113Z,3.33
2023-05-03T08:25:08.448Z,4.17
2023-05-03T08:27:35.042Z,3.80
2023-05-03T08:30:01.814Z,3.75
2023-05-03T08:32:30.456Z,4.10
2023-05-03T08:34:57.098Z,3.93
2023-05-03T08:37:23.822Z,3.47
2023-05-03T08:39:50.368Z,3.30
2023-05-03T08:42:16.980Z,3.27
2023-05-03T08:44:50.973Z,3.47
2023-05-03T08:47:17.594Z,3.53
2023-05-03T08:49:44.687Z,15.93
2023-05-03T08:52:12.000Z,5.10
2023-05-03T08:54:38.913Z,3.50
2023-05-03T08:57:10.352Z,3.57
2023-05-03T08:59:46.523Z,2.80
2023-05-03T09:02:14.333Z,3.13
2023-05-03T09:04:40.893Z,3.80
2023-05-03T09:07:08.448Z,2.73
2023-05-03T09:09:35.014Z,3.07
2023-05-03T09:12:01.697Z,3.20
2023-05-03T09:14:28.198Z,2.53
2023-05-03T09:16:54.841Z,3.30
2023-05-03T09:19:21.671Z,3.70
2023-05-03T09:21:48.272Z,4.47
2023-05-03T09:24:15.607Z,3.10
2023-05-03T09:26:42.512Z,3.90
2023-05-03T09:29:09.591Z,4.20
2023-05-03T09:31:37.024Z,3.10
2023-05-03T09:34:21.008Z,3.80
2023-05-03T09:36:47.601Z,3.53
2023-05-03T09:39:17.848Z,2.80
2023-05-03T09:41:44.397Z,3.80
2023-05-03T09:44:10.992Z,2.80
2023-05-03T09:46:39.159Z,3.40
2023-05-03T09:49:06.910Z,2.90
2023-05-03T09:51:33.665Z,2.50
2023-05-03T09:54:00.296Z,3.10
2023-05-03T09:56:27.030Z,3.00
2023-05-03T09:58:54.473Z,3.43
2023-05-03T10:01:23.891Z,3.13
2023-05-03T10:03:51.144Z,3.37
2023-05-03T10:06:30.947Z,3.20
2023-05-03T10:08:57.475Z,3.10
2023-05-03T10:11:24.271Z,3.30
2023-05-03T10:13:51.039Z,3.00
2023-05-03T10:16:27.745Z,3.60
2023-05-03T10:18:56.661Z,3.60
2023-05-03T10:21:33.161Z,3.47
2023-05-03T10:24:16.431Z,3.07
2023-05-03T10:26:47.546Z,3.57
2023-05-03T10:29:32.523Z,3.27
2023-05-03T10:31:59.133Z,3.17
2023-05-03T10:34:30.347Z,2.90
2023-05-03T10:36:57.235Z,3.33
2023-05-03T10:39:24.294Z,3.30
2023-05-03T10:41:57.368Z,3.00
2023-05-03T10:44:28.032Z,3.00
2023-05-03T10:46:54.742Z,3.03
2023-05-03T10:49:22.143Z,3.27
2023-05-03T10:51:48.802Z,3.10
2023-05-03T10:54:17.032Z,3.20
2023-05-03T10:56:50.753Z,3.00
2023-05-03T10:59:17.857Z,3.23
2023-05-03T11:01:48.826Z,2.90
2023-05-03T11:04:21.609Z,3.50
2023-05-03T11:06:51.952Z,2.93
2023-05-03T11:09:18.832Z,3.40
2023-05-03T11:11:46.187Z,3.00
2023-05-03T11:14:13.848Z,3.03
2023-05-03T11:16:47.830Z,3.00
2023-05-03T11:19:15.192Z,3.10
2023-05-03T11:21:42.560Z,3.13
2023-05-03T11:24:09.658Z,2.87
2023-05-03T11:26:39.593Z,3.17
2023-05-03T11:29:06.224Z,2.83
2023-05-03T11:31:33.143Z,3.00
2023-05-03T11:33:59.771Z,3.10
2023-05-03T11:36:27.919Z,2.97
2023-05-03T11:38:54.585Z,2.93
2023-05-03T11:41:21.686Z,3.07
2023-05-03T11:43:54.954Z,3.13
2023-05-03T11:46:28.622Z,2.87
2023-05-03T11:48:56.127Z,2.67
2023-05-03T11:51:23.638Z,2.70
2023-05-03T11:53:50.770Z,3.10
2023-05-03T11:56:21.095Z,2.97
2023-05-03T11:58:51.421Z,2.83
2023-05-03T12:01:18.592Z,2.70
2023-05-03T12:03:48.105Z,2.80
2023-05-03T12:06:16.588Z,2.73
2023-05-03T12:08:44.894Z,3.00
2023-05-03T12:11:13.459Z,2.77
2023-05-03T12:13:41.362Z,2.70
2023-05-03T12:16:13.369Z,2.97
2023-05-03T12:18:50.123Z,2.40
2023-05-03T12:23:48.926Z,2.90
2023-05-03T12:26:18.885Z,2.83
2023-05-03T12:28:48.990Z,2.90
2023-05-03T12:31:17.912Z,2.73
2023-05-03T12:34:01.478Z,2.90
2023-05-03T12:36:37.374Z,2.83
2023-05-03T12:39:07.586Z,2.60
2023-05-03T12:42:05.532Z,2.60
2023-05-03T12:44:24.077Z,2.80
2023-05-03T12:46:52.714Z,3.00
2023-05-03T12:49:22.636Z,2.73
2023-05-03T12:52:06.150Z,2.80
2023-05-03T12:54:38.988Z,2.40
2023-05-03T12:57:14.689Z,2.20
2023-05-03T12:59:43.111Z,2.50
2023-05-03T13:07:13.828Z,2.60
2023-05-03T13:12:27.622Z,2.33
2023-05-03T13:14:54.929Z,2.33
2023-05-03T13:17:22.793Z,2.03
2023-05-03T13:19:51.013Z,2.27
2023-05-03T13:22:17.720Z,2.43
2023-05-03T13:24:45.051Z,2.27
2023-05-03T13:27:11.623Z,2.50
2023-05-03T13:29:38.776Z,2.23
2023-05-03T13:32:05.589Z,2.77
2023-05-03T13:34:32.827Z,2.97
2023-05-03T13:36:59.533Z,2.80
2023-05-03T13:39:26.166Z,2.50
2023-05-03T13:41:52.788Z,1.90
2023-05-03T13:44:19.464Z,3.43
2023-05-03T13:46:46.199Z,2.27
2023-05-03T13:49:12.810Z,2.80
2023-05-03T13:51:40.467Z,3.40
2023-05-03T13:54:07.827Z,2.53
2023-05-03T13:56:34.762Z,2.40
2023-05-03T13:59:01.474Z,2.40
2023-05-03T14:01:29.035Z,2.23
2023-05-03T14:03:55.880Z,2.57
2023-05-03T14:06:25.761Z,2.80
2023-05-03T14:08:54.246Z,1.97
2023-05-03T14:11:21.844Z,2.00
2023-05-03T14:13:56.847Z,2.20
2023-05-03T14:16:36.374Z,2.60
2023-05-03T14:19:06.520Z,3.00
2023-05-03T14:21:33.206Z,4.07
2023-05-03T14:23:59.976Z,2.37
2023-05-03T14:26:26.791Z,2.90
2023-05-03T14:28:53.373Z,2.57
2023-05-03T14:31:20.107Z,2.27
2023-05-03T14:33:46.658Z,2.87
2023-05-03T14:36:13.329Z,1.90
2023-05-03T14:38:39.908Z,2.10
2023-05-03T14:41:06.417Z,2.33
2023-05-03T14:43:33.057Z,2.67
2023-05-03T14:45:59.734Z,2.10
2023-05-03T14:48:26.303Z,2.70
2023-05-03T14:50:53.497Z,3.20
2023-05-03T14:53:20.458Z,2.40
2023-05-03T14:55:47.038Z,2.17
2023-05-03T14:58:13.684Z,2.10
2023-05-03T15:00:41.327Z,2.53
2023-05-03T15:03:11.484Z,2.10
2023-05-03T15:05:48.598Z,2.30
2023-05-03T15:08:17.255Z,1.87
2023-05-03T15:10:47.996Z,1.80
2023-05-03T15:13:15.726Z,1.83
2023-05-03T15:15:45.992Z,1.83
2023-05-03T15:18:14.649Z,1.67
2023-05-03T15:20:41.317Z,1.70
2023-05-03T15:23:07.865Z,1.70
2023-05-03T15:25:35.551Z,1.70
2023-05-03T15:28:04.234Z,2.33
2023-05-03T15:30:32.163Z,1.87
2023-05-03T15:32:58.916Z,1.90
2023-05-03T15:35:25.517Z,2.00
2023-05-03T15:37:52.188Z,2.10
2023-05-03T15:40:23.787Z,1.70
2023-05-03T15:42:51.876Z,2.00
2023-05-03T15:45:19.000Z,4.20
2023-05-03T15:47:46.187Z,5.70
2023-05-03T15:50:12.868Z,18.47
2023-05-03T15:52:39.423Z,4.30
2023-05-03T15:55:06.781Z,2.40
2023-05-03T15:57:33.379Z,2.33
2023-05-03T15:59:59.929Z,1.63
2023-05-03T16:02:26.702Z,1.70
2023-05-03T16:04:53.323Z,10.50
2023-05-03T16:07:20.038Z,5.03
2023-05-03T16:09:46.889Z,2.30
2023-05-03T16:12:13.521Z,2.10
2023-05-03T16:14:40.119Z,2.30
2023-05-03T16:17:06.806Z,13.47
2023-05-03T16:19:33.377Z,3.83
2023-05-03T16:21:59.966Z,23.07
2023-05-03T16:24:26.765Z,6.57
2023-05-03T16:26:53.286Z,3.10
2023-05-03T16:29:19.965Z,2.20
2023-05-03T16:31:47.095Z,3.27
2023-05-03T16:34:14.102Z,1.90
2023-05-03T16:36:43.109Z,1.80
2023-05-03T16:39:10.555Z,2.10
2023-05-03T16:41:37.736Z,1.93
2023-05-03T16:44:05.179Z,1.70
2023-05-03T16:46:40.962Z,1.83
2023-05-03T16:49:07.525Z,2.00
2023-05-03T16:51:34.138Z,2.00
2023-05-03T16:54:02.444Z,2.10
2023-05-03T16:56:30.949Z,1.83
2023-05-03T16:58:58.908Z,1.90
2023-05-03T17:01:25.550Z,1.93
2023-05-03T17:03:52.407Z,1.93
2023-05-03T17:06:19.749Z,2.20
2023-05-03T17:08:46.372Z,1.90
2023-05-03T17:11:13.912Z,1.80
2023-05-03T17:13:40.563Z,1.70
2023-05-03T17:16:09.155Z,2.20
2023-05-03T17:18:36.369Z,1.90
2023-05-03T17:21:04.763Z,1.90
2023-05-03T17:23:35.837Z,2.00
2023-05-03T17:26:03.761Z,2.00
2023-05-03T17:28:30.775Z,1.87
2023-05-03T17:30:57.281Z,1.90
2023-05-03T17:33:25.189Z,2.00
2023-05-03T17:35:52.162Z,1.80
2023-05-03T17:38:18.785Z,1.90
2023-05-03T17:40:46.044Z,2.07
2023-05-03T17:43:12.843Z,2.07
2023-05-03T17:45:42.842Z,1.77
2023-05-03T17:48:09.416Z,1.70
2023-05-03T17:50:35.937Z,1.87
2023-05-03T17:53:02.747Z,1.70
2023-05-03T17:55:29.522Z,1.93
2023-05-03T17:57:56.220Z,1.90
2023-05-03T18:00:23.021Z,2.00
2023-05-03T18:02:49.756Z,2.10
2023-05-03T18:05:16.905Z,2.20
2023-05-03T18:07:43.917Z,2.07
2023-05-03T18:10:14.593Z,2.30
2023-05-03T18:12:41.489Z,2.20
2023-05-03T18:15:08.244Z,2.53
2023-05-03T18:17:34.810Z,2.10
2023-05-03T18:20:01.966Z,2.50
2023-05-03T18:22:28.932Z,3.10
2023-05-03T18:24:55.623Z,3.57
2023-05-03T18:27:22.732Z,4.10
2023-05-03T18:29:49.233Z,3.60
2023-05-03T18:32:16.197Z,4.00
2023-05-03T18:34:42.881Z,3.70
2023-05-03T18:37:09.890Z,3.40
2023-05-03T18:39:36.815Z,3.33
2023-05-03T18:42:03.456Z,3.57
2023-05-03T18:44:31.933Z,3.30
2023-05-03T18:46:58.540Z,3.57
2023-05-03T18:49:25.286Z,2.60
2023-05-03T18:51:51.844Z,3.00
2023-05-03T18:54:18.564Z,2.47
2023-05-03T18:56:45.071Z,3.10
2023-05-03T18:59:11.606Z,2.80
2023-05-03T19:01:38.401Z,2.93
2023-05-03T19:04:05.478Z,3.20
2023-05-03T19:06:32.052Z,3.40
2023-05-03T19:08:58.551Z,3.23
2023-05-03T19:11:26.976Z,3.10
2023-05-03T19:13:53.697Z,3.23
2023-05-03T19:16:20.373Z,3.33
2023-05-03T19:18:48.001Z,3.00
2023-05-03T19:21:17.572Z,3.30
2023-05-03T19:23:44.566Z,3.00
2023-05-03T19:26:11.048Z,3.47
2023-05-03T19:28:37.687Z,3.00
2023-05-03T19:31:04.902Z,3.83
2023-05-03T19:33:31.624Z,3.20
2023-05-03T19:35:58.424Z,3.20
2023-05-03T19:38:24.951Z,2.90
2023-05-03T19:40:55.578Z,3.07
2023-05-03T19:43:22.089Z,3.73
2023-05-03T19:45:48.651Z,3.20
2023-05-03T19:48:17.409Z,3.33
2023-05-03T19:50:44.463Z,3.10
2023-05-03T19:53:11.040Z,3.63
2023-05-03T19:55:37.547Z,3.40
2023-05-03T19:58:04.071Z,3.67
2023-05-03T20:00:30.822Z,3.30
2023-05-03T20:02:57.422Z,3.20
2023-05-03T20:05:24.048Z,3.37
2023-05-03T20:07:52.614Z,3.10
2023-05-03T20:10:19.281Z,3.37
2023-05-03T20:12:46.938Z,2.93
2023-05-03T20:15:13.619Z,3.30
2023-05-03T20:17:40.197Z,3.67
2023-05-03T20:20:07.387Z,3.20
2023-05-03T20:22:33.879Z,3.20
2023-05-03T20:25:00.359Z,3.50
2023-05-03T20:27:27.324Z,3.80
2023-05-03T20:29:53.899Z,3.83
2023-05-03T20:32:20.467Z,3.23
2023-05-03T20:34:47.263Z,3.17
2023-05-03T20:37:13.780Z,3.37
2023-05-03T20:39:40.374Z,3.50
2023-05-03T20:42:06.895Z,3.10
2023-05-03T20:44:33.444Z,2.90
2023-05-03T20:47:00.025Z,3.20
2023-05-03T20:49:26.877Z,3.50
2023-05-03T20:51:53.360Z,2.63
2023-05-03T20:54:19.885Z,10.90
2023-05-03T20:56:46.753Z,8.33
2023-05-03T20:59:13.270Z,13.60
2023-05-03T21:01:40.753Z,14.57
2023-05-03T21:04:07.467Z,13.57
2023-05-03T21:06:36.213Z,15.07
2023-05-03T21:09:02.708Z,13.10
2023-05-03T21:11:29.289Z,11.73
2023-05-03T21:13:55.906Z,9.17
2023-05-03T21:16:22.753Z,7.73
2023-05-03T21:18:49.432Z,7.17
2023-05-03T21:21:15.985Z,7.07
2023-05-03T21:23:42.498Z,7.60
2023-05-03T21:26:09.030Z,13.63
2023-05-03T21:28:35.691Z,10.13
2023-05-03T21:31:02.337Z,10.00
2023-05-03T21:33:28.826Z,11.70
2023-05-03T21:35:55.380Z,10.90
2023-05-03T21:38:21.926Z,9.47
2023-05-03T21:40:48.490Z,8.83
2023-05-03T21:43:15.101Z,10.07
2023-05-03T21:45:44.737Z,9.30
2023-05-03T21:48:11.282Z,9.03
2023-05-03T21:50:38.392Z,7.27
2023-05-03T21:53:05.105Z,7.27
2023-05-03T21:55:31.679Z,6.30
2023-05-03T21:57:58.215Z,6.67
2023-05-03T22:00:25.120Z,6.13
2023-05-03T22:02:51.740Z,5.73
2023-05-03T22:05:18.405Z,5.60
2023-05-03T22:07:46.807Z,5.80
2023-05-03T22:10:13.366Z,5.37
2023-05-03T22:12:40.013Z,5.60
2023-05-03T22:15:07.574Z,5.20
2023-05-03T22:17:34.155Z,4.90
2023-05-03T22:20:01.056Z,4.67
2023-05-03T22:22:27.549Z,4.47
2023-05-03T22:24:54.987Z,4.20
2023-05-03T22:27:21.504Z,4.57
2023-05-03T22:29:47.982Z,4.60
2023-05-03T22:32:14.549Z,4.20
2023-05-03T22:34:41.096Z,4.47
2023-05-03T22:37:07.588Z,4.93
2023-05-03T22:39:34.145Z,4.80
2023-05-03T22:42:00.843Z,4.57
2023-05-03T22:44:27.899Z,4.67
2023-05-03T22:46:54.406Z,4.43
2023-05-03T22:49:20.953Z,4.27
2023-05-03T22:51:47.445Z,4.60
2023-05-03T22:54:13.969Z,4.40
2023-05-03T22:56:40.465Z,4.57
2023-05-03T22:59:07.010Z,4.47
2023-05-03T23:01:33.813Z,4.73
2023-05-03T23:04:00.781Z,4.33
2023-05-03T23:06:27.346Z,4.53
2023-05-03T23:08:53.907Z,4.53
2023-05-03T23:11:21.073Z,5.43
2023-05-03T23:13:47.580Z,5.60
2023-05-03T23:16:14.589Z,5.20
2023-05-03T23:18:41.219Z,4.63
2023-05-03T23:21:07.887Z,4.57
2023-05-03T23:23:34.595Z,4.33
2023-05-03T23:26:01.166Z,4.40
2023-05-03T23:28:28.116Z,4.77
2023-05-03T23:30:55.186Z,4.87
2023-05-03T23:33:22.142Z,3.93
2023-05-03T23:35:49.214Z,4.10
2023-05-03T23:38:15.928Z,4.03
2023-05-03T23:40:42.571Z,4.40
2023-05-03T23:43:09.108Z,4.10
2023-05-03T23:45:35.712Z,5.10
2023-05-03T23:48:02.322Z,4.40
2023-05-03T23:50:28.848Z,4.87
2023-05-03T23:52:55.763Z,4.90
2023-05-03T23:55:22.319Z,4.60
2023-05-03T23:57:48.860Z,4.57
